DTTN

Jendouba Airport

Jendouba, Tunisia
METAR DTTN 242000Z VRB02KT 8000 SCT020 SCT030 09/07 Q1006
Observed Flight Rules
Feb-24 @ 20:00 UTC (13 minutes ago) Marginal Visual Flight Rules
Wind Visibility Clouds
Variable at 2 knots 7,998 meters
  • Scattered at 2,000' AGL
  • Scattered at 3,000' AGL
Temperatures Readings
Current 9°C / 48°F
Dewpoint 7°C / 45°F
Humidity 87%
Altimeter 29.7" Hg
Pressure 1006 hPa
Elevation 144
METAR DTTN 242000Z VRB02KT 8000 SCT020 SCT030 09/07 Q1006
Observed Flight Rules
Feb-24 @ 20:00 UTC
(13 minutes ago)
MVFR
Wind Visibility
Variable at 2 knots 7,998 meters
Clouds
  • Scattered at 2,000' AGL
  • Scattered at 3,000' AGL
Temperature Dewpoint
9°C / 48°F 7°C / 45°F
Humidity Altimeter Pressure
87% 29.7" Hg 1006 hPa